PWSweather.com
Personal Weather Stations
Station Observations
MART18
Seleziona Stato..., MartinsicuroIT italia

Seleziona Stato...MartinsicuroIT italia

Lat: 42.885169, Lon: 13.918447300000025

Elevation: 3

Station Type: Davis vantage vp2

branciuno67@gmail.com

High Low Average
Temperature 79.5°F26.4°C 65.5°F18.6°C 72.0°F22.2°C
Dew Point 67.1°F19.5°C 54.9°F12.7°C 59.5°F15.3°C
Winds 16.1 mph 25.9 kmh Calm Calm 6.0 mph WSW9.7 kmh WSW
Wind Gusts 25.1 mph40.4 kmh -- 11.0 mph17.7 kmh
Humidity 76% 51% 65%
Pressure 29.84 in1010.5 mb 29.60 in1002.4 mb -
Precipitation 0.04 in1.0 mm - -
Hour Temp Dew Point Humidity Winds Wind Gusts Pressure Precip Precip Rate Daily Precip Total
12:04 AM 74.1°F23.4°C 63.0°F17.2°C 68% 2.0 mph NW3.2 kmh NW 2.9 mph4.7 kmh 29.63 in1003.4 mb 0.00 in0.0 mm 0.00 in0.0 mm 0.00 in0.0 mm
12:09 AM 74.1°F23.4°C 62.4°F16.9°C 67% 0.9 mph NW1.4 kmh NW 2.9 mph4.7 kmh 29.63 in1003.4 mb 0.00 in0.0 mm 0.00 in0.0 mm 0.00 in0.0 mm
12:14 AM 74.5°F23.6°C 62.4°F16.9°C 66% Calm Calm 2.0 mph3.2 kmh 29.63 in1003.4 mb 0.00 in0.0 mm 0.00 in0.0 mm 0.00 in0.0 mm
12:19 AM 74.7°F23.7°C 62.1°F16.7°C 65% 0.9 mph NW1.4 kmh NW 3.0 mph4.8 kmh 29.63 in1003.4 mb 0.00 in0.0 mm 0.00 in0.0 mm 0.00 in0.0 mm
12:24 AM 74.8°F23.8°C 61.9°F16.6°C 64% 0.9 mph NW1.4 kmh NW 2.9 mph4.7 kmh 29.63 in1003.4 mb 0.00 in0.0 mm 0.00 in0.0 mm 0.00 in0.0 mm
12:29 AM 74.8°F23.8°C 62.8°F17.1°C 66% 0.9 mph NW1.4 kmh NW 2.9 mph4.7 kmh 29.63 in1003.4 mb 0.00 in0.0 mm 0.00 in0.0 mm 0.00 in0.0 mm
12:34 AM 73.8°F23.2°C 62.6°F17.0°C 68% 0.9 mph WNW1.4 kmh WNW 6.9 mph11.1 kmh 29.63 in1003.4 mb 0.00 in0.0 mm 0.00 in0.0 mm 0.00 in0.0 mm
12:39 AM 73.0°F22.8°C 62.6°F17.0°C 70% 2.0 mph NW3.2 kmh NW 6.0 mph9.7 kmh 29.63 in1003.4 mb 0.00 in0.0 mm 0.00 in0.0 mm 0.00 in0.0 mm
12:44 AM 72.5°F22.5°C 62.6°F17.0°C 71% 0.9 mph NW1.4 kmh NW 2.9 mph4.7 kmh 29.63 in1003.4 mb 0.00 in0.0 mm 0.00 in0.0 mm 0.00 in0.0 mm
12:49 AM 72.1°F22.3°C 62.2°F16.8°C 71% 0.9 mph N1.4 kmh N 4.0 mph6.4 kmh 29.63 in1003.4 mb 0.00 in0.0 mm 0.00 in0.0 mm 0.00 in0.0 mm
12:55 AM 72.0°F22.2°C 62.1°F16.7°C 71% 0.9 mph N1.4 kmh N 2.9 mph4.7 kmh 29.63 in1003.4 mb 0.00 in0.0 mm 0.00 in0.0 mm 0.00 in0.0 mm
01:00 AM 72.1°F22.3°C 61.9°F16.6°C 70% Calm Calm -- 29.63 in1003.4 mb 0.00 in0.0 mm 0.00 in0.0 mm 0.00 in0.0 mm
01:05 AM 72.0°F22.2°C 61.7°F16.5°C 70% Calm Calm -- 29.63 in1003.4 mb 0.00 in0.0 mm 0.00 in0.0 mm 0.00 in0.0 mm
01:10 AM 72.0°F22.2°C 61.2°F16.2°C 69% Calm Calm -- 29.63 in1003.4 mb 0.00 in0.0 mm 0.00 in0.0 mm 0.00 in0.0 mm
01:15 AM 72.0°F22.2°C 61.2°F16.2°C 69% Calm Calm -- 29.63 in1003.4 mb 0.00 in0.0 mm 0.00 in0.0 mm 0.00 in0.0 mm
01:20 AM 72.1°F22.3°C 61.3°F16.3°C 69% Calm Calm 0.9 mph1.4 kmh 29.63 in1003.4 mb 0.00 in0.0 mm 0.00 in0.0 mm 0.00 in0.0 mm
01:25 AM 72.1°F22.3°C 61.9°F16.6°C 70% Calm Calm 2.0 mph3.2 kmh 29.62 in1003.0 mb 0.00 in0.0 mm 0.00 in0.0 mm 0.00 in0.0 mm
01:30 AM 72.3°F22.4°C 62.1°F16.7°C 70% 0.9 mph WSW1.4 kmh WSW 4.9 mph7.9 kmh 29.62 in1003.0 mb 0.00 in0.0 mm 0.00 in0.0 mm 0.00 in0.0 mm
01:35 AM 72.1°F22.3°C 61.9°F16.6°C 70% 2.0 mph WSW3.2 kmh WSW 4.9 mph7.9 kmh 29.62 in1003.0 mb 0.00 in0.0 mm 0.00 in0.0 mm 0.00 in0.0 mm
01:40 AM 72.0°F22.2°C 60.8°F16.0°C 68% 2.9 mph WSW4.7 kmh WSW 4.0 mph6.4 kmh 29.62 in1003.0 mb 0.00 in0.0 mm 0.00 in0.0 mm 0.00 in0.0 mm
01:45 AM 72.5°F22.5°C 59.5°F15.3°C 64% 2.0 mph WNW3.2 kmh WNW 4.0 mph6.4 kmh 29.62 in1003.0 mb 0.00 in0.0 mm 0.00 in0.0 mm 0.00 in0.0 mm
01:50 AM 73.6°F23.1°C 58.8°F14.9°C 60% 2.0 mph WNW3.2 kmh WNW 4.0 mph6.4 kmh 29.62 in1003.0 mb 0.00 in0.0 mm 0.00 in0.0 mm 0.00 in0.0 mm
01:55 AM 74.5°F23.6°C 58.8°F14.9°C 58% 2.9 mph NW4.7 kmh NW 8.1 mph13.0 kmh 29.61 in1002.7 mb 0.00 in0.0 mm 0.00 in0.0 mm 0.00 in0.0 mm
02:00 AM 74.7°F23.7°C 58.8°F14.9°C 58% 2.9 mph SW4.7 kmh SW 6.9 mph11.1 kmh 29.62 in1003.0 mb 0.00 in0.0 mm 0.00 in0.0 mm 0.00 in0.0 mm
02:05 AM 74.5°F23.6°C 59.2°F15.1°C 59% 2.0 mph WNW3.2 kmh WNW 4.9 mph7.9 kmh 29.62 in1003.0 mb 0.00 in0.0 mm 0.00 in0.0 mm 0.00 in0.0 mm
02:10 AM 74.1°F23.4°C 59.4°F15.2°C 60% 0.9 mph WNW1.4 kmh WNW 2.9 mph4.7 kmh 29.62 in1003.0 mb 0.00 in0.0 mm 0.00 in0.0 mm 0.00 in0.0 mm
02:15 AM 73.8°F23.2°C 59.5°F15.3°C 61% Calm Calm 2.9 mph4.7 kmh 29.61 in1002.7 mb 0.00 in0.0 mm 0.00 in0.0 mm 0.00 in0.0 mm
02:20 AM 73.6°F23.1°C 59.4°F15.2°C 61% Calm Calm 2.0 mph3.2 kmh 29.62 in1003.0 mb 0.00 in0.0 mm 0.00 in0.0 mm 0.00 in0.0 mm
02:25 AM 73.4°F23.0°C 59.2°F15.1°C 61% Calm Calm 2.0 mph3.2 kmh 29.62 in1003.0 mb 0.00 in0.0 mm 0.00 in0.0 mm 0.00 in0.0 mm
02:30 AM 73.8°F23.2°C 59.5°F15.3°C 61% 0.9 mph NNW1.4 kmh NNW 4.9 mph7.9 kmh 29.61 in1002.7 mb 0.00 in0.0 mm 0.00 in0.0 mm 0.00 in0.0 mm
02:35 AM 73.6°F23.1°C 59.4°F15.2°C 61% 0.9 mph NNW1.4 kmh NNW 2.0 mph3.2 kmh 29.61 in1002.7 mb 0.00 in0.0 mm 0.00 in0.0 mm 0.00 in0.0 mm
02:40 AM 73.4°F23.0°C 59.2°F15.1°C 61% Calm Calm 0.9 mph1.4 kmh 29.61 in1002.7 mb 0.00 in0.0 mm 0.00 in0.0 mm 0.00 in0.0 mm
02:45 AM 73.4°F23.0°C 59.2°F15.1°C 61% 0.9 mph NNW1.4 kmh NNW 4.9 mph7.9 kmh 29.60 in1002.4 mb 0.00 in0.0 mm 0.00 in0.0 mm 0.00 in0.0 mm
02:50 AM 73.0°F22.8°C 59.2°F15.1°C 62% 2.0 mph N3.2 kmh N 4.9 mph7.9 kmh 29.61 in1002.7 mb 0.00 in0.0 mm 0.00 in0.0 mm 0.00 in0.0 mm
02:55 AM 72.1°F22.3°C 59.4°F15.2°C 64% 2.9 mph WNW4.7 kmh WNW 8.1 mph13.0 kmh 29.61 in1002.7 mb 0.00 in0.0 mm 0.00 in0.0 mm 0.00 in0.0 mm
03:00 AM 71.6°F22.0°C 59.2°F15.1°C 65% 2.9 mph NW4.7 kmh NW 4.9 mph7.9 kmh 29.61 in1002.7 mb 0.00 in0.0 mm 0.00 in0.0 mm 0.00 in0.0 mm
03:05 AM 71.1°F21.7°C 59.2°F15.1°C 66% 2.0 mph W3.2 kmh W 4.0 mph6.4 kmh 29.62 in1003.0 mb 0.00 in0.0 mm 0.00 in0.0 mm 0.00 in0.0 mm
03:10 AM 71.1°F21.7°C 59.5°F15.3°C 67% 0.9 mph W1.4 kmh W -- 29.62 in1003.0 mb 0.00 in0.0 mm 0.00 in0.0 mm 0.00 in0.0 mm
03:15 AM 71.2°F21.8°C 59.4°F15.2°C 66% Calm Calm 2.9 mph4.7 kmh 29.62 in1003.0 mb 0.00 in0.0 mm 0.00 in0.0 mm 0.00 in0.0 mm
03:20 AM 71.6°F22.0°C 59.2°F15.1°C 65% 0.9 mph S1.4 kmh S 4.0 mph6.4 kmh 29.62 in1003.0 mb 0.00 in0.0 mm 0.00 in0.0 mm 0.00 in0.0 mm
03:25 AM 72.0°F22.2°C 59.2°F15.1°C 64% 0.9 mph S1.4 kmh S -- 29.62 in1003.0 mb 0.00 in0.0 mm 0.00 in0.0 mm 0.00 in0.0 mm
03:30 AM 72.7°F22.6°C 58.8°F14.9°C 62% Calm Calm 0.9 mph1.4 kmh 29.62 in1003.0 mb 0.00 in0.0 mm 0.00 in0.0 mm 0.00 in0.0 mm
03:35 AM 73.2°F22.9°C 59.0°F15.0°C 61% Calm Calm 2.0 mph3.2 kmh 29.61 in1002.7 mb 0.00 in0.0 mm 0.00 in0.0 mm 0.00 in0.0 mm
03:40 AM 73.6°F23.1°C 58.3°F14.6°C 59% 0.9 mph S1.4 kmh S 2.9 mph4.7 kmh 29.61 in1002.7 mb 0.00 in0.0 mm 0.00 in0.0 mm 0.00 in0.0 mm
03:45 AM 73.8°F23.2°C 58.5°F14.7°C 59% 2.0 mph S3.2 kmh S 2.9 mph4.7 kmh 29.62 in1003.0 mb 0.00 in0.0 mm 0.00 in0.0 mm 0.00 in0.0 mm
03:50 AM 73.8°F23.2°C 58.5°F14.7°C 59% 0.9 mph S1.4 kmh S 0.9 mph1.4 kmh 29.62 in1003.0 mb 0.00 in0.0 mm 0.00 in0.0 mm 0.00 in0.0 mm
03:55 AM 73.6°F23.1°C 58.3°F14.6°C 59% 0.9 mph SW1.4 kmh SW 4.0 mph6.4 kmh 29.61 in1002.7 mb 0.00 in0.0 mm 0.00 in0.0 mm 0.00 in0.0 mm
04:00 AM 73.2°F22.9°C 58.1°F14.5°C 59% 2.0 mph SW3.2 kmh SW 5.0 mph8.0 kmh 29.61 in1002.7 mb 0.00 in0.0 mm 0.00 in0.0 mm 0.00 in0.0 mm
04:05 AM 73.2°F22.9°C 58.1°F14.5°C 59% 2.0 mph SW3.2 kmh SW 2.9 mph4.7 kmh 29.61 in1002.7 mb 0.00 in0.0 mm 0.00 in0.0 mm 0.00 in0.0 mm
04:10 AM 73.2°F22.9°C 58.1°F14.5°C 59% 0.9 mph SW1.4 kmh SW 2.9 mph4.7 kmh 29.61 in1002.7 mb 0.00 in0.0 mm 0.00 in0.0 mm 0.00 in0.0 mm
04:15 AM 73.2°F22.9°C 58.1°F14.5°C 59% 0.9 mph SW1.4 kmh SW 0.9 mph1.4 kmh 29.61 in1002.7 mb 0.00 in0.0 mm 0.00 in0.0 mm 0.00 in0.0 mm
04:20 AM 73.0°F22.8°C 58.3°F14.6°C 60% Calm Calm 0.9 mph1.4 kmh 29.61 in1002.7 mb 0.00 in0.0 mm 0.00 in0.0 mm 0.00 in0.0 mm
04:25 AM 72.7°F22.6°C 58.5°F14.7°C 61% 0.9 mph SW1.4 kmh SW 2.9 mph4.7 kmh 29.61 in1002.7 mb 0.00 in0.0 mm 0.00 in0.0 mm 0.00 in0.0 mm
04:30 AM 72.0°F22.2°C 57.7°F14.3°C 61% 2.0 mph SW3.2 kmh SW 4.0 mph6.4 kmh 29.61 in1002.7 mb 0.00 in0.0 mm 0.00 in0.0 mm 0.00 in0.0 mm
04:35 AM 71.6°F22.0°C 57.9°F14.4°C 62% 2.0 mph SW3.2 kmh SW 4.0 mph6.4 kmh 29.61 in1002.7 mb 0.00 in0.0 mm 0.00 in0.0 mm 0.00 in0.0 mm
04:40 AM 71.8°F22.1°C 58.1°F14.5°C 62% 2.0 mph SW3.2 kmh SW 2.9 mph4.7 kmh 29.62 in1003.0 mb 0.00 in0.0 mm 0.00 in0.0 mm 0.00 in0.0 mm
04:45 AM 72.3°F22.4°C 57.7°F14.3°C 60% 0.9 mph SW1.4 kmh SW 2.9 mph4.7 kmh 29.62 in1003.0 mb 0.00 in0.0 mm 0.00 in0.0 mm 0.00 in0.0 mm
04:50 AM 72.7°F22.6°C 58.5°F14.7°C 61% 0.9 mph WNW1.4 kmh WNW 4.0 mph6.4 kmh 29.63 in1003.4 mb 0.00 in0.0 mm 0.00 in0.0 mm 0.00 in0.0 mm
04:55 AM 72.1°F22.3°C 57.9°F14.4°C 61% 0.9 mph WNW1.4 kmh WNW 2.0 mph3.2 kmh 29.63 in1003.4 mb 0.00 in0.0 mm 0.00 in0.0 mm 0.00 in0.0 mm
05:00 AM 71.8°F22.1°C 58.1°F14.5°C 62% Calm Calm 2.0 mph3.2 kmh 29.63 in1003.4 mb 0.00 in0.0 mm 0.00 in0.0 mm 0.00 in0.0 mm
05:05 AM 71.6°F22.0°C 58.3°F14.6°C 63% Calm Calm 0.9 mph1.4 kmh 29.63 in1003.4 mb 0.00 in0.0 mm 0.00 in0.0 mm 0.00 in0.0 mm
05:10 AM 71.4°F21.9°C 57.7°F14.3°C 62% Calm Calm 0.9 mph1.4 kmh 29.63 in1003.4 mb 0.00 in0.0 mm 0.00 in0.0 mm 0.00 in0.0 mm
05:15 AM 71.8°F22.1°C 58.1°F14.5°C 62% Calm Calm 2.0 mph3.2 kmh 29.63 in1003.4 mb 0.00 in0.0 mm 0.00 in0.0 mm 0.00 in0.0 mm
05:20 AM 72.3°F22.4°C 58.1°F14.5°C 61% Calm Calm 2.0 mph3.2 kmh 29.63 in1003.4 mb 0.00 in0.0 mm 0.00 in0.0 mm 0.00 in0.0 mm
05:25 AM 72.7°F22.6°C 57.0°F13.9°C 58% 0.9 mph SW1.4 kmh SW 5.0 mph8.0 kmh 29.63 in1003.4 mb 0.00 in0.0 mm 0.00 in0.0 mm 0.00 in0.0 mm
05:30 AM 73.8°F23.2°C 56.7°F13.7°C 55% 2.0 mph S3.2 kmh S 6.9 mph11.1 kmh 29.63 in1003.4 mb 0.00 in0.0 mm 0.00 in0.0 mm 0.00 in0.0 mm
05:35 AM 75.4°F24.1°C 55.9°F13.3°C 51% 2.9 mph S4.7 kmh S 6.0 mph9.7 kmh 29.63 in1003.4 mb 0.00 in0.0 mm 0.00 in0.0 mm 0.00 in0.0 mm
05:40 AM 73.9°F23.3°C 58.3°F14.6°C 58% 2.9 mph WSW4.7 kmh WSW 4.9 mph7.9 kmh 29.64 in1003.7 mb 0.00 in0.0 mm 0.00 in0.0 mm 0.00 in0.0 mm
05:45 AM 71.8°F22.1°C 58.1°F14.5°C 62% 2.0 mph NW3.2 kmh NW 4.0 mph6.4 kmh 29.64 in1003.7 mb 0.00 in0.0 mm 0.00 in0.0 mm 0.00 in0.0 mm
05:50 AM 71.1°F21.7°C 57.7°F14.3°C 63% 2.0 mph WNW3.2 kmh WNW 4.9 mph7.9 kmh 29.64 in1003.7 mb 0.00 in0.0 mm 0.00 in0.0 mm 0.00 in0.0 mm
05:55 AM 71.4°F21.9°C 57.7°F14.3°C 62% 2.0 mph WNW3.2 kmh WNW 2.9 mph4.7 kmh 29.65 in1004.1 mb 0.00 in0.0 mm 0.00 in0.0 mm 0.00 in0.0 mm
06:00 AM 72.1°F22.3°C 57.9°F14.4°C 61% 0.9 mph NW1.4 kmh NW 4.0 mph6.4 kmh 29.65 in1004.1 mb 0.00 in0.0 mm 0.00 in0.0 mm 0.00 in0.0 mm
06:05 AM 72.7°F22.6°C 58.5°F14.7°C 61% 0.9 mph NW1.4 kmh NW 4.0 mph6.4 kmh 29.65 in1004.1 mb 0.00 in0.0 mm 0.00 in0.0 mm 0.00 in0.0 mm
06:10 AM 73.0°F22.8°C 58.8°F14.9°C 61% 0.9 mph NNW1.4 kmh NNW 2.9 mph4.7 kmh 29.65 in1004.1 mb 0.00 in0.0 mm 0.00 in0.0 mm 0.00 in0.0 mm
06:15 AM 72.9°F22.7°C 59.0°F15.0°C 62% 0.9 mph NW1.4 kmh NW 2.9 mph4.7 kmh 29.65 in1004.1 mb 0.00 in0.0 mm 0.00 in0.0 mm 0.00 in0.0 mm
06:20 AM 72.9°F22.7°C 59.5°F15.3°C 63% 0.9 mph NW1.4 kmh NW 0.9 mph1.4 kmh 29.65 in1004.1 mb 0.00 in0.0 mm 0.00 in0.0 mm 0.00 in0.0 mm
06:25 AM 72.9°F22.7°C 59.5°F15.3°C 63% Calm Calm 3.0 mph4.8 kmh 29.66 in1004.4 mb 0.00 in0.0 mm 0.00 in0.0 mm 0.00 in0.0 mm
06:30 AM 72.9°F22.7°C 59.9°F15.5°C 64% 0.9 mph NW1.4 kmh NW 2.9 mph4.7 kmh 29.66 in1004.4 mb 0.00 in0.0 mm 0.00 in0.0 mm 0.00 in0.0 mm
06:35 AM 73.0°F22.8°C 60.6°F15.9°C 65% 0.9 mph NW1.4 kmh NW 2.0 mph3.2 kmh 29.66 in1004.4 mb 0.00 in0.0 mm 0.00 in0.0 mm 0.00 in0.0 mm
06:40 AM 73.2°F22.9°C 60.8°F16.0°C 65% 0.9 mph NW1.4 kmh NW 2.9 mph4.7 kmh 29.66 in1004.4 mb 0.00 in0.0 mm 0.00 in0.0 mm 0.00 in0.0 mm
06:45 AM 73.6°F23.1°C 61.2°F16.2°C 65% 2.0 mph NW3.2 kmh NW 4.0 mph6.4 kmh 29.67 in1004.7 mb 0.00 in0.0 mm 0.00 in0.0 mm 0.00 in0.0 mm
06:50 AM 73.6°F23.1°C 61.2°F16.2°C 65% 2.0 mph N3.2 kmh N 6.9 mph11.1 kmh 29.67 in1004.7 mb 0.00 in0.0 mm 0.00 in0.0 mm 0.00 in0.0 mm
06:55 AM 73.6°F23.1°C 61.2°F16.2°C 65% 2.9 mph N4.7 kmh N 4.9 mph7.9 kmh 29.67 in1004.7 mb 0.00 in0.0 mm 0.00 in0.0 mm 0.00 in0.0 mm
07:00 AM 73.6°F23.1°C 61.2°F16.2°C 65% 2.0 mph NW3.2 kmh NW 4.9 mph7.9 kmh 29.67 in1004.7 mb 0.00 in0.0 mm 0.00 in0.0 mm 0.00 in0.0 mm
07:05 AM 73.8°F23.2°C 61.7°F16.5°C 66% 2.0 mph NW3.2 kmh NW 4.0 mph6.4 kmh 29.67 in1004.7 mb 0.00 in0.0 mm 0.00 in0.0 mm 0.00 in0.0 mm
07:10 AM 74.1°F23.4°C 62.1°F16.7°C 66% 2.0 mph NW3.2 kmh NW 2.9 mph4.7 kmh 29.67 in1004.7 mb 0.00 in0.0 mm 0.00 in0.0 mm 0.00 in0.0 mm
07:15 AM 74.8°F23.8°C 62.8°F17.1°C 66% 0.9 mph NW1.4 kmh NW 2.9 mph4.7 kmh 29.67 in1004.7 mb 0.00 in0.0 mm 0.00 in0.0 mm 0.00 in0.0 mm
07:20 AM 75.4°F24.1°C 63.1°F17.3°C 66% 0.9 mph NW1.4 kmh NW 2.9 mph4.7 kmh 29.67 in1004.7 mb 0.00 in0.0 mm 0.00 in0.0 mm 0.00 in0.0 mm
07:25 AM 75.7°F24.3°C 63.5°F17.5°C 66% 0.9 mph NW1.4 kmh NW 2.0 mph3.2 kmh 29.67 in1004.7 mb 0.00 in0.0 mm 0.00 in0.0 mm 0.00 in0.0 mm
07:30 AM 76.3°F24.6°C 64.0°F17.8°C 66% 0.9 mph NW1.4 kmh NW 4.0 mph6.4 kmh 29.67 in1004.7 mb 0.00 in0.0 mm 0.00 in0.0 mm 0.00 in0.0 mm
07:35 AM 76.6°F24.8°C 64.4°F18.0°C 66% 0.9 mph NW1.4 kmh NW 2.9 mph4.7 kmh 29.67 in1004.7 mb 0.00 in0.0 mm 0.00 in0.0 mm 0.00 in0.0 mm
07:40 AM 77.4°F25.2°C 64.8°F18.2°C 65% 0.9 mph NNW1.4 kmh NNW 4.0 mph6.4 kmh 29.67 in1004.7 mb 0.00 in0.0 mm 0.00 in0.0 mm 0.00 in0.0 mm
07:45 AM 77.5°F25.3°C 64.4°F18.0°C 64% 2.9 mph NE4.7 kmh NE 6.0 mph9.7 kmh 29.66 in1004.4 mb 0.00 in0.0 mm 0.00 in0.0 mm 0.00 in0.0 mm
07:50 AM 77.7°F25.4°C 64.0°F17.8°C 63% 4.0 mph NNE6.4 kmh NNE 8.1 mph13.0 kmh 29.66 in1004.4 mb 0.00 in0.0 mm 0.00 in0.0 mm 0.00 in0.0 mm
07:55 AM 78.1°F25.6°C 63.1°F17.3°C 60% 4.0 mph N6.4 kmh N 8.1 mph13.0 kmh 29.66 in1004.4 mb 0.00 in0.0 mm 0.00 in0.0 mm 0.00 in0.0 mm
08:00 AM 78.4°F25.8°C 63.3°F17.4°C 60% 4.0 mph NNE6.4 kmh NNE 6.9 mph11.1 kmh 29.67 in1004.7 mb 0.00 in0.0 mm 0.00 in0.0 mm 0.00 in0.0 mm
08:05 AM 78.6°F25.9°C 62.6°F17.0°C 58% 2.0 mph NNE3.2 kmh NNE 4.0 mph6.4 kmh 29.67 in1004.7 mb 0.00 in0.0 mm 0.00 in0.0 mm 0.00 in0.0 mm
08:10 AM 79.0°F26.1°C 62.4°F16.9°C 57% 2.9 mph 4.7 kmh 11.0 mph17.7 kmh 29.67 in1004.7 mb 0.00 in0.0 mm 0.00 in0.0 mm 0.00 in0.0 mm
08:15 AM 79.5°F26.4°C 63.9°F17.7°C 59% 4.9 mph N7.9 kmh N 11.0 mph17.7 kmh 29.67 in1004.7 mb 0.00 in0.0 mm 0.00 in0.0 mm 0.00 in0.0 mm
08:20 AM 79.5°F26.4°C 64.9°F18.3°C 61% 6.0 mph ENE9.7 kmh ENE 12.1 mph19.5 kmh 29.67 in1004.7 mb 0.00 in0.0 mm 0.00 in0.0 mm 0.00 in0.0 mm
08:25 AM 79.5°F26.4°C 64.4°F18.0°C 60% 6.0 mph NE9.7 kmh NE 12.1 mph19.5 kmh 29.67 in1004.7 mb 0.00 in0.0 mm 0.00 in0.0 mm 0.00 in0.0 mm
08:30 AM 79.3°F26.3°C 65.1°F18.4°C 62% 6.0 mph N9.7 kmh N 12.1 mph19.5 kmh 29.66 in1004.4 mb 0.00 in0.0 mm 0.00 in0.0 mm 0.00 in0.0 mm
08:35 AM 79.0°F26.1°C 64.8°F18.2°C 62% 6.9 mph NE11.1 kmh NE 12.1 mph19.5 kmh 29.67 in1004.7 mb 0.00 in0.0 mm 0.00 in0.0 mm 0.00 in0.0 mm
08:40 AM 78.6°F25.9°C 64.0°F17.8°C 61% 6.9 mph N11.1 kmh N 13.0 mph20.9 kmh 29.67 in1004.7 mb 0.00 in0.0 mm 0.00 in0.0 mm 0.00 in0.0 mm
08:45 AM 78.6°F25.9°C 64.9°F18.3°C 63% 8.1 mph NNE13.0 kmh NNE 13.0 mph20.9 kmh 29.67 in1004.7 mb 0.00 in0.0 mm 0.00 in0.0 mm 0.00 in0.0 mm
08:50 AM 79.0°F26.1°C 65.3°F18.5°C 63% 8.1 mph 13.0 kmh 13.0 mph20.9 kmh 29.67 in1004.7 mb 0.00 in0.0 mm 0.00 in0.0 mm 0.00 in0.0 mm
08:55 AM 79.0°F26.1°C 65.3°F18.5°C 63% 6.9 mph NNE11.1 kmh NNE 12.1 mph19.5 kmh 29.67 in1004.7 mb 0.00 in0.0 mm 0.00 in0.0 mm 0.00 in0.0 mm
09:00 AM 78.6°F25.9°C 65.8°F18.8°C 65% 6.9 mph NNE11.1 kmh NNE 12.1 mph19.5 kmh 29.67 in1004.7 mb 0.00 in0.0 mm 0.00 in0.0 mm 0.00 in0.0 mm
09:05 AM 78.4°F25.8°C 66.2°F19.0°C 66% 8.1 mph 13.0 kmh 13.0 mph20.9 kmh 29.67 in1004.7 mb 0.00 in0.0 mm 0.00 in0.0 mm 0.00 in0.0 mm
09:10 AM 78.4°F25.8°C 66.6°F19.2°C 67% 8.9 mph 14.3 kmh 14.1 mph22.7 kmh 29.68 in1005.1 mb 0.00 in0.0 mm 0.00 in0.0 mm 0.00 in0.0 mm
09:15 AM 78.3°F25.7°C 66.4°F19.1°C 67% 8.9 mph N14.3 kmh N 14.1 mph22.7 kmh 29.68 in1005.1 mb 0.00 in0.0 mm 0.00 in0.0 mm 0.00 in0.0 mm
09:20 AM 78.1°F25.6°C 65.8°F18.8°C 66% 8.9 mph NNE14.3 kmh NNE 14.1 mph22.7 kmh 29.68 in1005.1 mb 0.00 in0.0 mm 0.00 in0.0 mm 0.00 in0.0 mm
09:25 AM 78.1°F25.6°C 65.8°F18.8°C 66% 8.9 mph N14.3 kmh N 15.0 mph24.1 kmh 29.68 in1005.1 mb 0.00 in0.0 mm 0.00 in0.0 mm 0.00 in0.0 mm
09:30 AM 77.5°F25.3°C 64.4°F18.0°C 64% 10.1 mph NNE16.3 kmh NNE 17.0 mph27.4 kmh 29.68 in1005.1 mb 0.00 in0.0 mm 0.00 in0.0 mm 0.00 in0.0 mm
09:35 AM 78.1°F25.6°C 64.9°F18.3°C 64% 11.0 mph NE17.7 kmh NE 16.1 mph25.9 kmh 29.69 in1005.4 mb 0.00 in0.0 mm 0.00 in0.0 mm 0.00 in0.0 mm
09:40 AM 78.1°F25.6°C 64.0°F17.8°C 62% 11.0 mph 17.7 kmh 16.1 mph25.9 kmh 29.69 in1005.4 mb 0.00 in0.0 mm 0.00 in0.0 mm 0.00 in0.0 mm
09:45 AM 78.1°F25.6°C 64.9°F18.3°C 64% 11.0 mph N17.7 kmh N 17.0 mph27.4 kmh 29.69 in1005.4 mb 0.00 in0.0 mm 0.00 in0.0 mm 0.00 in0.0 mm
09:50 AM 78.4°F25.8°C 64.8°F18.2°C 63% 10.1 mph 16.3 kmh 16.1 mph25.9 kmh 29.69 in1005.4 mb 0.00 in0.0 mm 0.00 in0.0 mm 0.00 in0.0 mm
09:55 AM 78.3°F25.7°C 65.1°F18.4°C 64% 10.1 mph NE16.3 kmh NE 16.1 mph25.9 kmh 29.69 in1005.4 mb 0.00 in0.0 mm 0.00 in0.0 mm 0.00 in0.0 mm
10:00 AM 78.4°F25.8°C 64.8°F18.2°C 63% 10.1 mph NE16.3 kmh NE 17.0 mph27.4 kmh 29.69 in1005.4 mb 0.00 in0.0 mm 0.00 in0.0 mm 0.00 in0.0 mm
10:05 AM 78.4°F25.8°C 64.8°F18.2°C 63% 10.1 mph 16.3 kmh 15.0 mph24.1 kmh 29.69 in1005.4 mb 0.00 in0.0 mm 0.00 in0.0 mm 0.00 in0.0 mm
10:10 AM 78.4°F25.8°C 65.3°F18.5°C 64% 10.1 mph N16.3 kmh N 16.1 mph25.9 kmh 29.69 in1005.4 mb 0.00 in0.0 mm 0.00 in0.0 mm 0.00 in0.0 mm
10:15 AM 78.4°F25.8°C 65.7°F18.7°C 65% 10.1 mph NNE16.3 kmh NNE 17.9 mph28.8 kmh 29.69 in1005.4 mb 0.00 in0.0 mm 0.00 in0.0 mm 0.00 in0.0 mm
10:20 AM 78.6°F25.9°C 67.1°F19.5°C 68% 11.0 mph NNE17.7 kmh NNE 20.0 mph32.2 kmh 29.70 in1005.8 mb 0.00 in0.0 mm 0.00 in0.0 mm 0.00 in0.0 mm
10:25 AM 77.7°F25.4°C 66.4°F19.1°C 68% 12.1 mph NE19.5 kmh NE 21.0 mph33.8 kmh 29.69 in1005.4 mb 0.00 in0.0 mm 0.00 in0.0 mm 0.00 in0.0 mm
10:30 AM 77.4°F25.2°C 66.4°F19.1°C 69% 13.0 mph NNE20.9 kmh NNE 21.9 mph35.2 kmh 29.69 in1005.4 mb 0.00 in0.0 mm 0.00 in0.0 mm 0.00 in0.0 mm
10:35 AM 77.2°F25.1°C 66.2°F19.0°C 69% 14.1 mph NNE22.7 kmh NNE 23.9 mph38.5 kmh 29.69 in1005.4 mb 0.00 in0.0 mm 0.00 in0.0 mm 0.00 in0.0 mm
10:40 AM 77.2°F25.1°C 66.6°F19.2°C 70% 14.1 mph NE22.7 kmh NE 19.9 mph32.0 kmh 29.69 in1005.4 mb 0.00 in0.0 mm 0.00 in0.0 mm 0.00 in0.0 mm
10:45 AM 77.2°F25.1°C 66.6°F19.2°C 70% 14.1 mph NE22.7 kmh NE 21.9 mph35.2 kmh 29.69 in1005.4 mb 0.00 in0.0 mm 0.00 in0.0 mm 0.00 in0.0 mm
10:50 AM 76.6°F24.8°C 65.7°F18.7°C 69% 14.1 mph NE22.7 kmh NE 23.0 mph37.0 kmh 29.69 in1005.4 mb 0.00 in0.0 mm 0.00 in0.0 mm 0.00 in0.0 mm
10:55 AM 76.3°F24.6°C 66.2°F19.0°C 71% 16.1 mph NNE25.9 kmh NNE 25.1 mph40.4 kmh 29.69 in1005.4 mb 0.00 in0.0 mm 0.00 in0.0 mm 0.00 in0.0 mm
11:00 AM 76.1°F24.5°C 66.0°F18.9°C 71% 16.1 mph N25.9 kmh N 23.9 mph38.5 kmh 29.69 in1005.4 mb 0.00 in0.0 mm 0.00 in0.0 mm 0.00 in0.0 mm
11:05 AM 75.4°F24.1°C 65.7°F18.7°C 72% 16.1 mph N25.9 kmh N 25.1 mph40.4 kmh 29.69 in1005.4 mb 0.00 in0.0 mm 0.00 in0.0 mm 0.00 in0.0 mm
11:10 AM 75.4°F24.1°C 65.3°F18.5°C 71% 16.1 mph N25.9 kmh N 23.0 mph37.0 kmh 29.69 in1005.4 mb 0.00 in0.0 mm 0.00 in0.0 mm 0.00 in0.0 mm
11:15 AM 75.4°F24.1°C 64.6°F18.1°C 69% 14.1 mph N22.7 kmh N 21.0 mph33.8 kmh 29.70 in1005.8 mb 0.00 in0.0 mm 0.00 in0.0 mm 0.00 in0.0 mm
11:20 AM 74.8°F23.8°C 64.0°F17.8°C 69% 13.0 mph N20.9 kmh N 19.9 mph32.0 kmh 29.70 in1005.8 mb 0.00 in0.0 mm 0.00 in0.0 mm 0.00 in0.0 mm
11:25 AM 74.5°F23.6°C 64.0°F17.8°C 70% 12.1 mph N19.5 kmh N 19.9 mph32.0 kmh 29.71 in1006.1 mb 0.00 in0.0 mm 0.00 in0.0 mm 0.00 in0.0 mm
11:30 AM 73.6°F23.1°C 63.7°F17.6°C 71% 12.1 mph NNW19.5 kmh NNW 17.9 mph28.8 kmh 29.71 in1006.1 mb 0.00 in0.0 mm 0.00 in0.0 mm 0.00 in0.0 mm
11:35 AM 73.0°F22.8°C 63.1°F17.3°C 71% 11.0 mph NNE17.7 kmh NNE 19.9 mph32.0 kmh 29.72 in1006.4 mb 0.00 in0.0 mm 0.00 in0.0 mm 0.00 in0.0 mm
11:40 AM 73.0°F22.8°C 63.5°F17.5°C 72% 8.9 mph NE14.3 kmh NE 15.0 mph24.1 kmh 29.72 in1006.4 mb 0.00 in0.0 mm 0.00 in0.0 mm 0.00 in0.0 mm
11:45 AM 72.7°F22.6°C 62.8°F17.1°C 71% 8.9 mph N14.3 kmh N 16.1 mph25.9 kmh 29.72 in1006.4 mb 0.00 in0.0 mm 0.00 in0.0 mm 0.00 in0.0 mm
11:50 AM 72.5°F22.5°C 62.2°F16.8°C 70% 10.1 mph NNE16.3 kmh NNE 18.0 mph29.0 kmh 29.73 in1006.8 mb 0.03 in0.8 mm 0.36 in9.1 mm 0.03 in0.8 mm
11:55 AM 72.0°F22.2°C 61.7°F16.5°C 70% 11.0 mph N17.7 kmh N 21.0 mph33.8 kmh 29.73 in1006.8 mb 0.03 in0.8 mm 0.00 in0.0 mm 0.03 in0.8 mm
12:00 PM 71.8°F22.1°C 61.5°F16.4°C 70% 12.1 mph NNW19.5 kmh NNW 16.1 mph25.9 kmh 29.73 in1006.8 mb 0.03 in0.8 mm 0.00 in0.0 mm 0.03 in0.8 mm
12:05 PM 71.4°F21.9°C 60.3°F15.7°C 68% 11.0 mph N17.7 kmh N 19.9 mph32.0 kmh 29.73 in1006.8 mb 0.03 in0.8 mm 0.00 in0.0 mm 0.03 in0.8 mm
12:10 PM 71.6°F22.0°C 60.4°F15.8°C 68% 11.0 mph 17.7 kmh 17.9 mph28.8 kmh 29.73 in1006.8 mb 0.03 in0.8 mm 0.00 in0.0 mm 0.03 in0.8 mm
12:15 PM 72.3°F22.4°C 60.8°F16.0°C 67% 8.9 mph NNE14.3 kmh NNE 15.0 mph24.1 kmh 29.73 in1006.8 mb 0.03 in0.8 mm 0.00 in0.0 mm 0.03 in0.8 mm
12:20 PM 72.7°F22.6°C 60.6°F15.9°C 66% 10.1 mph NE16.3 kmh NE 19.0 mph30.6 kmh 29.75 in1007.5 mb 0.03 in0.8 mm 0.00 in0.0 mm 0.03 in0.8 mm
12:25 PM 72.9°F22.7°C 60.8°F16.0°C 66% 12.1 mph NNE19.5 kmh NNE 23.0 mph37.0 kmh 29.74 in1007.1 mb 0.03 in0.8 mm 0.00 in0.0 mm 0.03 in0.8 mm
12:30 PM 72.7°F22.6°C 60.3°F15.7°C 65% 13.0 mph NW20.9 kmh NW 19.0 mph30.6 kmh 29.74 in1007.1 mb 0.03 in0.8 mm 0.00 in0.0 mm 0.03 in0.8 mm
12:35 PM 72.9°F22.7°C 60.4°F15.8°C 65% 12.1 mph NNW19.5 kmh NNW 19.0 mph30.6 kmh 29.74 in1007.1 mb 0.03 in0.8 mm 0.00 in0.0 mm 0.03 in0.8 mm
12:40 PM 73.2°F22.9°C 60.3°F15.7°C 64% 8.9 mph NW14.3 kmh NW 13.0 mph20.9 kmh 29.74 in1007.1 mb 0.03 in0.8 mm 0.00 in0.0 mm 0.03 in0.8 mm
12:45 PM 72.9°F22.7°C 59.9°F15.5°C 64% 8.1 mph WNW13.0 kmh WNW 16.1 mph25.9 kmh 29.75 in1007.5 mb 0.03 in0.8 mm 0.00 in0.0 mm 0.03 in0.8 mm
12:50 PM 71.6°F22.0°C 59.2°F15.1°C 65% 8.1 mph NW13.0 kmh NW 17.0 mph27.4 kmh 29.75 in1007.5 mb 0.00 in0.0 mm 0.00 in0.0 mm 0.03 in0.8 mm
12:55 PM 70.9°F21.6°C 59.7°F15.4°C 68% 8.9 mph NNW14.3 kmh NNW 12.1 mph19.5 kmh 29.74 in1007.1 mb 0.00 in0.0 mm 0.00 in0.0 mm 0.03 in0.8 mm
01:00 PM 70.5°F21.4°C 59.9°F15.5°C 69% 6.9 mph NNE11.1 kmh NNE 13.0 mph20.9 kmh 29.74 in1007.1 mb 0.00 in0.0 mm 0.00 in0.0 mm 0.03 in0.8 mm
01:05 PM 70.7°F21.5°C 59.2°F15.1°C 67% 6.9 mph N11.1 kmh N 14.1 mph22.7 kmh 29.75 in1007.5 mb 0.00 in0.0 mm 0.00 in0.0 mm 0.03 in0.8 mm
01:10 PM 70.9°F21.6°C 59.0°F15.0°C 66% 6.9 mph NW11.1 kmh NW 17.0 mph27.4 kmh 29.74 in1007.1 mb 0.00 in0.0 mm 0.00 in0.0 mm 0.03 in0.8 mm
01:15 PM 70.9°F21.6°C 59.0°F15.0°C 66% 6.9 mph NNE11.1 kmh NNE 15.0 mph24.1 kmh 29.74 in1007.1 mb 0.00 in0.0 mm 0.00 in0.0 mm 0.03 in0.8 mm
01:20 PM 70.7°F21.5°C 58.3°F14.6°C 65% 6.9 mph NW11.1 kmh NW 15.0 mph24.1 kmh 29.74 in1007.1 mb 0.00 in0.0 mm 0.00 in0.0 mm 0.03 in0.8 mm
01:25 PM 70.5°F21.4°C 58.1°F14.5°C 65% 8.1 mph NW13.0 kmh NW 15.0 mph24.1 kmh 29.75 in1007.5 mb 0.00 in0.0 mm 0.00 in0.0 mm 0.03 in0.8 mm
01:30 PM 70.3°F21.3°C 58.1°F14.5°C 65% 8.1 mph NW13.0 kmh NW 15.0 mph24.1 kmh 29.75 in1007.5 mb 0.00 in0.0 mm 0.00 in0.0 mm 0.03 in0.8 mm
01:35 PM 70.5°F21.4°C 58.1°F14.5°C 65% 6.9 mph WNW11.1 kmh WNW 13.0 mph20.9 kmh 29.75 in1007.5 mb 0.00 in0.0 mm 0.00 in0.0 mm 0.03 in0.8 mm
01:40 PM 70.7°F21.5°C 58.3°F14.6°C 65% 6.0 mph NW9.7 kmh NW 14.1 mph22.7 kmh 29.75 in1007.5 mb 0.00 in0.0 mm 0.00 in0.0 mm 0.03 in0.8 mm
01:45 PM 70.3°F21.3°C 58.1°F14.5°C 65% 6.9 mph N11.1 kmh N 14.1 mph22.7 kmh 29.75 in1007.5 mb 0.00 in0.0 mm 0.00 in0.0 mm 0.03 in0.8 mm
01:50 PM 69.8°F21.0°C 58.3°F14.6°C 67% 6.9 mph NW11.1 kmh NW 17.0 mph27.4 kmh 29.75 in1007.5 mb 0.00 in0.0 mm 0.00 in0.0 mm 0.03 in0.8 mm
01:55 PM 69.4°F20.8°C 58.5°F14.7°C 68% 6.9 mph N11.1 kmh N 13.0 mph20.9 kmh 29.74 in1007.1 mb 0.01 in0.3 mm 0.12 in3.0 mm 0.04 in1.0 mm
02:00 PM 69.4°F20.8°C 58.5°F14.7°C 68% 6.9 mph NNW11.1 kmh NNW 12.1 mph19.5 kmh 29.74 in1007.1 mb 0.01 in0.3 mm 0.00 in0.0 mm 0.04 in1.0 mm
02:05 PM 70.0°F21.1°C 58.5°F14.7°C 67% 6.9 mph N11.1 kmh N 14.1 mph22.7 kmh 29.74 in1007.1 mb 0.01 in0.3 mm 0.00 in0.0 mm 0.04 in1.0 mm
02:10 PM 70.5°F21.4°C 58.1°F14.5°C 65% 8.1 mph NNW13.0 kmh NNW 13.0 mph20.9 kmh 29.74 in1007.1 mb 0.01 in0.3 mm 0.00 in0.0 mm 0.04 in1.0 mm
02:15 PM 70.5°F21.4°C 57.7°F14.3°C 64% 8.1 mph NNW13.0 kmh NNW 15.0 mph24.1 kmh 29.74 in1007.1 mb 0.01 in0.3 mm 0.00 in0.0 mm 0.04 in1.0 mm
02:20 PM 70.7°F21.5°C 57.9°F14.4°C 64% 6.9 mph N11.1 kmh N 11.0 mph17.7 kmh 29.75 in1007.5 mb 0.01 in0.3 mm 0.00 in0.0 mm 0.04 in1.0 mm
02:25 PM 70.7°F21.5°C 57.9°F14.4°C 64% 6.0 mph NW9.7 kmh NW 13.0 mph20.9 kmh 29.75 in1007.5 mb 0.01 in0.3 mm 0.00 in0.0 mm 0.04 in1.0 mm
02:30 PM 70.5°F21.4°C 57.7°F14.3°C 64% 6.9 mph NW11.1 kmh NW 14.1 mph22.7 kmh 29.75 in1007.5 mb 0.01 in0.3 mm 0.00 in0.0 mm 0.04 in1.0 mm
02:35 PM 70.5°F21.4°C 57.7°F14.3°C 64% 6.9 mph NNW11.1 kmh NNW 12.1 mph19.5 kmh 29.75 in1007.5 mb 0.01 in0.3 mm 0.00 in0.0 mm 0.04 in1.0 mm
02:40 PM 70.5°F21.4°C 57.7°F14.3°C 64% 6.9 mph NW11.1 kmh NW 13.0 mph20.9 kmh 29.75 in1007.5 mb 0.01 in0.3 mm 0.00 in0.0 mm 0.04 in1.0 mm
02:45 PM 70.9°F21.6°C 58.1°F14.5°C 64% 6.0 mph N9.7 kmh N 14.1 mph22.7 kmh 29.75 in1007.5 mb 0.01 in0.3 mm 0.00 in0.0 mm 0.04 in1.0 mm
02:50 PM 70.7°F21.5°C 57.9°F14.4°C 64% 6.0 mph NW9.7 kmh NW 16.1 mph25.9 kmh 29.75 in1007.5 mb 0.01 in0.3 mm 0.00 in0.0 mm 0.04 in1.0 mm
02:55 PM 70.5°F21.4°C 57.7°F14.3°C 64% 8.1 mph NW13.0 kmh NW 15.0 mph24.1 kmh 29.75 in1007.5 mb 0.00 in0.0 mm 0.00 in0.0 mm 0.04 in1.0 mm
03:00 PM 70.3°F21.3°C 57.6°F14.2°C 64% 8.1 mph WNW13.0 kmh WNW 14.1 mph22.7 kmh 29.75 in1007.5 mb 0.00 in0.0 mm 0.00 in0.0 mm 0.04 in1.0 mm
03:05 PM 70.2°F21.2°C 57.9°F14.4°C 65% 8.1 mph NW13.0 kmh NW 15.0 mph24.1 kmh 29.75 in1007.5 mb 0.00 in0.0 mm 0.00 in0.0 mm 0.04 in1.0 mm
03:10 PM 70.0°F21.1°C 58.1°F14.5°C 66% 8.1 mph N13.0 kmh N 14.1 mph22.7 kmh 29.75 in1007.5 mb 0.00 in0.0 mm 0.00 in0.0 mm 0.04 in1.0 mm
03:15 PM 70.2°F21.2°C 58.3°F14.6°C 66% 8.1 mph NNE13.0 kmh NNE 12.1 mph19.5 kmh 29.75 in1007.5 mb 0.00 in0.0 mm 0.00 in0.0 mm 0.04 in1.0 mm
03:20 PM 70.2°F21.2°C 58.3°F14.6°C 66% 8.1 mph NNW13.0 kmh NNW 14.1 mph22.7 kmh 29.75 in1007.5 mb 0.00 in0.0 mm 0.00 in0.0 mm 0.04 in1.0 mm
03:25 PM 70.0°F21.1°C 58.1°F14.5°C 66% 8.1 mph N13.0 kmh N 13.0 mph20.9 kmh 29.76 in1007.8 mb 0.00 in0.0 mm 0.00 in0.0 mm 0.04 in1.0 mm
03:30 PM 70.0°F21.1°C 58.5°F14.7°C 67% 6.9 mph WNW11.1 kmh WNW 13.0 mph20.9 kmh 29.76 in1007.8 mb 0.00 in0.0 mm 0.00 in0.0 mm 0.04 in1.0 mm
03:35 PM 69.4°F20.8°C 57.9°F14.4°C 67% 8.1 mph W13.0 kmh W 16.1 mph25.9 kmh 29.76 in1007.8 mb 0.00 in0.0 mm 0.00 in0.0 mm 0.04 in1.0 mm
03:40 PM 68.9°F20.5°C 57.9°F14.4°C 68% 8.1 mph N13.0 kmh N 15.0 mph24.1 kmh 29.76 in1007.8 mb 0.00 in0.0 mm 0.00 in0.0 mm 0.04 in1.0 mm
03:45 PM 68.7°F20.4°C 58.1°F14.5°C 69% 6.9 mph N11.1 kmh N 12.1 mph19.5 kmh 29.76 in1007.8 mb 0.00 in0.0 mm 0.00 in0.0 mm 0.04 in1.0 mm
03:50 PM 68.7°F20.4°C 58.5°F14.7°C 70% 4.9 mph NW7.9 kmh NW 12.1 mph19.5 kmh 29.76 in1007.8 mb 0.00 in0.0 mm 0.00 in0.0 mm 0.04 in1.0 mm
03:56 PM 68.7°F20.4°C 58.5°F14.7°C 70% 6.0 mph WNW9.7 kmh WNW 14.1 mph22.7 kmh 29.76 in1007.8 mb 0.00 in0.0 mm 0.00 in0.0 mm 0.04 in1.0 mm
04:01 PM 68.7°F20.4°C 58.5°F14.7°C 70% 6.0 mph WNW9.7 kmh WNW 11.0 mph17.7 kmh 29.76 in1007.8 mb 0.00 in0.0 mm 0.00 in0.0 mm 0.04 in1.0 mm
04:06 PM 68.9°F20.5°C 58.6°F14.8°C 70% 4.9 mph N7.9 kmh N 12.1 mph19.5 kmh 29.76 in1007.8 mb 0.00 in0.0 mm 0.00 in0.0 mm 0.04 in1.0 mm
04:11 PM 69.3°F20.7°C 59.0°F15.0°C 70% 6.0 mph N9.7 kmh N 13.0 mph20.9 kmh 29.76 in1007.8 mb 0.00 in0.0 mm 0.00 in0.0 mm 0.04 in1.0 mm
04:16 PM 69.6°F20.9°C 58.6°F14.8°C 68% 6.0 mph N9.7 kmh N 13.0 mph20.9 kmh 29.76 in1007.8 mb 0.00 in0.0 mm 0.00 in0.0 mm 0.04 in1.0 mm
04:21 PM 69.8°F21.0°C 58.8°F14.9°C 68% 6.9 mph N11.1 kmh N 12.1 mph19.5 kmh 29.76 in1007.8 mb 0.00 in0.0 mm 0.00 in0.0 mm 0.04 in1.0 mm
04:26 PM 70.0°F21.1°C 59.0°F15.0°C 68% 6.9 mph WNW11.1 kmh WNW 13.0 mph20.9 kmh 29.76 in1007.8 mb 0.00 in0.0 mm 0.00 in0.0 mm 0.04 in1.0 mm
04:31 PM 70.2°F21.2°C 58.6°F14.8°C 67% 6.9 mph N11.1 kmh N 17.0 mph27.4 kmh 29.76 in1007.8 mb 0.00 in0.0 mm 0.00 in0.0 mm 0.04 in1.0 mm
04:36 PM 70.5°F21.4°C 58.6°F14.8°C 66% 6.9 mph NNW11.1 kmh NNW 13.0 mph20.9 kmh 29.76 in1007.8 mb 0.00 in0.0 mm 0.00 in0.0 mm 0.04 in1.0 mm
04:41 PM 70.3°F21.3°C 58.1°F14.5°C 65% 6.9 mph WNW11.1 kmh WNW 18.0 mph29.0 kmh 29.76 in1007.8 mb 0.00 in0.0 mm 0.00 in0.0 mm 0.04 in1.0 mm
04:46 PM 70.3°F21.3°C 57.6°F14.2°C 64% 8.1 mph NNW13.0 kmh NNW 13.0 mph20.9 kmh 29.76 in1007.8 mb 0.00 in0.0 mm 0.00 in0.0 mm 0.04 in1.0 mm
04:51 PM 70.5°F21.4°C 57.7°F14.3°C 64% 6.9 mph WNW11.1 kmh WNW 12.1 mph19.5 kmh 29.76 in1007.8 mb 0.00 in0.0 mm 0.00 in0.0 mm 0.04 in1.0 mm
04:56 PM 70.5°F21.4°C 57.7°F14.3°C 64% 6.0 mph NNW9.7 kmh NNW 14.1 mph22.7 kmh 29.76 in1007.8 mb 0.00 in0.0 mm 0.00 in0.0 mm 0.04 in1.0 mm
05:01 PM 70.5°F21.4°C 57.7°F14.3°C 64% 6.0 mph NNW9.7 kmh NNW 11.0 mph17.7 kmh 29.76 in1007.8 mb 0.00 in0.0 mm 0.00 in0.0 mm 0.04 in1.0 mm
05:06 PM 70.5°F21.4°C 57.7°F14.3°C 64% 6.0 mph NW9.7 kmh NW 11.0 mph17.7 kmh 29.76 in1007.8 mb 0.00 in0.0 mm 0.00 in0.0 mm 0.04 in1.0 mm
05:11 PM 70.5°F21.4°C 57.7°F14.3°C 64% 6.0 mph NW9.7 kmh NW 13.0 mph20.9 kmh 29.76 in1007.8 mb 0.00 in0.0 mm 0.00 in0.0 mm 0.04 in1.0 mm
05:16 PM 70.5°F21.4°C 57.4°F14.1°C 63% 6.9 mph WNW11.1 kmh WNW 13.0 mph20.9 kmh 29.76 in1007.8 mb 0.00 in0.0 mm 0.00 in0.0 mm 0.04 in1.0 mm
05:21 PM 70.7°F21.5°C 57.0°F13.9°C 62% 6.9 mph N11.1 kmh N 13.0 mph20.9 kmh 29.76 in1007.8 mb 0.00 in0.0 mm 0.00 in0.0 mm 0.04 in1.0 mm
05:26 PM 70.9°F21.6°C 57.2°F14.0°C 62% 6.9 mph 11.1 kmh 11.0 mph17.7 kmh 29.76 in1007.8 mb 0.00 in0.0 mm 0.00 in0.0 mm 0.04 in1.0 mm
05:31 PM 71.2°F21.8°C 57.0°F13.9°C 61% 6.0 mph NNW9.7 kmh NNW 10.1 mph16.3 kmh 29.76 in1007.8 mb 0.00 in0.0 mm 0.00 in0.0 mm 0.04 in1.0 mm
05:36 PM 71.6°F22.0°C 57.0°F13.9°C 60% 6.0 mph WNW9.7 kmh WNW 12.1 mph19.5 kmh 29.76 in1007.8 mb 0.00 in0.0 mm 0.00 in0.0 mm 0.04 in1.0 mm
05:41 PM 71.4°F21.9°C 56.8°F13.8°C 60% 6.9 mph NW11.1 kmh NW 17.0 mph27.4 kmh 29.76 in1007.8 mb 0.00 in0.0 mm 0.00 in0.0 mm 0.04 in1.0 mm
05:46 PM 71.4°F21.9°C 56.8°F13.8°C 60% 6.9 mph NW11.1 kmh NW 14.1 mph22.7 kmh 29.76 in1007.8 mb 0.00 in0.0 mm 0.00 in0.0 mm 0.04 in1.0 mm
05:51 PM 71.2°F21.8°C 56.7°F13.7°C 60% 6.0 mph WNW9.7 kmh WNW 13.0 mph20.9 kmh 29.76 in1007.8 mb 0.00 in0.0 mm 0.00 in0.0 mm 0.04 in1.0 mm
05:56 PM 71.4°F21.9°C 56.8°F13.8°C 60% 4.9 mph NW7.9 kmh NW 13.0 mph20.9 kmh 29.76 in1007.8 mb 0.00 in0.0 mm 0.00 in0.0 mm 0.04 in1.0 mm
06:01 PM 71.4°F21.9°C 56.8°F13.8°C 60% 4.9 mph WNW7.9 kmh WNW 8.9 mph14.3 kmh 29.76 in1007.8 mb 0.00 in0.0 mm 0.00 in0.0 mm 0.04 in1.0 mm
06:06 PM 71.4°F21.9°C 56.8°F13.8°C 60% 4.0 mph NNW6.4 kmh NNW 8.9 mph14.3 kmh 29.77 in1008.1 mb 0.00 in0.0 mm 0.00 in0.0 mm 0.04 in1.0 mm
06:11 PM 71.2°F21.8°C 56.7°F13.7°C 60% 4.9 mph N7.9 kmh N 13.0 mph20.9 kmh 29.77 in1008.1 mb 0.00 in0.0 mm 0.00 in0.0 mm 0.04 in1.0 mm
06:16 PM 71.2°F21.8°C 56.7°F13.7°C 60% 6.0 mph NW9.7 kmh NW 12.1 mph19.5 kmh 29.78 in1008.5 mb 0.00 in0.0 mm 0.00 in0.0 mm 0.04 in1.0 mm
06:21 PM 71.2°F21.8°C 56.7°F13.7°C 60% 4.0 mph N6.4 kmh N 6.9 mph11.1 kmh 29.78 in1008.5 mb 0.00 in0.0 mm 0.00 in0.0 mm 0.04 in1.0 mm
06:26 PM 71.1°F21.7°C 55.9°F13.3°C 59% 4.9 mph WNW7.9 kmh WNW 12.1 mph19.5 kmh 29.78 in1008.5 mb 0.00 in0.0 mm 0.00 in0.0 mm 0.04 in1.0 mm
06:31 PM 70.9°F21.6°C 56.3°F13.5°C 60% 6.9 mph NW11.1 kmh NW 15.0 mph24.1 kmh 29.78 in1008.5 mb 0.00 in0.0 mm 0.00 in0.0 mm 0.04 in1.0 mm
06:36 PM 70.9°F21.6°C 56.3°F13.5°C 60% 6.9 mph WNW11.1 kmh WNW 14.1 mph22.7 kmh 29.78 in1008.5 mb 0.00 in0.0 mm 0.00 in0.0 mm 0.04 in1.0 mm
06:41 PM 70.7°F21.5°C 56.1°F13.4°C 60% 6.0 mph NNW9.7 kmh NNW 15.0 mph24.1 kmh 29.79 in1008.8 mb 0.00 in0.0 mm 0.00 in0.0 mm 0.04 in1.0 mm
06:46 PM 70.5°F21.4°C 55.9°F13.3°C 60% 6.9 mph WNW11.1 kmh WNW 13.0 mph20.9 kmh 29.78 in1008.5 mb 0.00 in0.0 mm 0.00 in0.0 mm 0.04 in1.0 mm
06:51 PM 70.5°F21.4°C 55.9°F13.3°C 60% 6.0 mph WNW9.7 kmh WNW 11.0 mph17.7 kmh 29.79 in1008.8 mb 0.00 in0.0 mm 0.00 in0.0 mm 0.04 in1.0 mm
06:56 PM 70.5°F21.4°C 55.9°F13.3°C 60% 6.0 mph N9.7 kmh N 11.0 mph17.7 kmh 29.79 in1008.8 mb 0.00 in0.0 mm 0.00 in0.0 mm 0.04 in1.0 mm
07:01 PM 70.3°F21.3°C 55.8°F13.2°C 60% 6.0 mph NW9.7 kmh NW 14.1 mph22.7 kmh 29.79 in1008.8 mb 0.00 in0.0 mm 0.00 in0.0 mm 0.04 in1.0 mm
07:06 PM 70.3°F21.3°C 55.4°F13.0°C 59% 6.0 mph 9.7 kmh 14.1 mph22.7 kmh 29.78 in1008.5 mb 0.00 in0.0 mm 0.00 in0.0 mm 0.04 in1.0 mm
07:11 PM 70.3°F21.3°C 55.4°F13.0°C 59% 6.9 mph N11.1 kmh N 12.1 mph19.5 kmh 29.78 in1008.5 mb 0.00 in0.0 mm 0.00 in0.0 mm 0.04 in1.0 mm
07:16 PM 70.2°F21.2°C 55.2°F12.9°C 59% 6.9 mph N11.1 kmh N 13.0 mph20.9 kmh 29.79 in1008.8 mb 0.00 in0.0 mm 0.00 in0.0 mm 0.04 in1.0 mm
07:21 PM 70.2°F21.2°C 55.2°F12.9°C 59% 6.0 mph NNW9.7 kmh NNW 13.0 mph20.9 kmh 29.78 in1008.5 mb 0.00 in0.0 mm 0.00 in0.0 mm 0.04 in1.0 mm
07:26 PM 70.0°F21.1°C 55.0°F12.8°C 59% 6.0 mph NNW9.7 kmh NNW 13.0 mph20.9 kmh 29.78 in1008.5 mb 0.00 in0.0 mm 0.00 in0.0 mm 0.04 in1.0 mm
07:31 PM 69.8°F21.0°C 54.9°F12.7°C 59% 4.9 mph WNW7.9 kmh WNW 11.0 mph17.7 kmh 29.79 in1008.8 mb 0.00 in0.0 mm 0.00 in0.0 mm 0.04 in1.0 mm
07:36 PM 69.6°F20.9°C 55.0°F12.8°C 60% 4.9 mph NNW7.9 kmh NNW 12.1 mph19.5 kmh 29.79 in1008.8 mb 0.00 in0.0 mm 0.00 in0.0 mm 0.04 in1.0 mm
07:41 PM 69.6°F20.9°C 55.0°F12.8°C 60% 4.0 mph WNW6.4 kmh WNW 8.1 mph13.0 kmh 29.79 in1008.8 mb 0.00 in0.0 mm 0.00 in0.0 mm 0.04 in1.0 mm
07:46 PM 69.4°F20.8°C 55.4°F13.0°C 61% 4.0 mph N6.4 kmh N 8.1 mph13.0 kmh 29.79 in1008.8 mb 0.00 in0.0 mm 0.00 in0.0 mm 0.04 in1.0 mm
07:51 PM 69.3°F20.7°C 55.2°F12.9°C 61% 2.9 mph NNW4.7 kmh NNW 6.0 mph9.7 kmh 29.79 in1008.8 mb 0.00 in0.0 mm 0.00 in0.0 mm 0.04 in1.0 mm
07:56 PM 69.3°F20.7°C 55.2°F12.9°C 61% 2.9 mph NW4.7 kmh NW 8.9 mph14.3 kmh 29.80 in1009.1 mb 0.00 in0.0 mm 0.00 in0.0 mm 0.04 in1.0 mm
08:01 PM 69.1°F20.6°C 55.6°F13.1°C 62% 2.9 mph WNW4.7 kmh WNW 8.9 mph14.3 kmh 29.80 in1009.1 mb 0.00 in0.0 mm 0.00 in0.0 mm 0.04 in1.0 mm
08:06 PM 68.9°F20.5°C 55.4°F13.0°C 62% 4.0 mph N6.4 kmh N 8.9 mph14.3 kmh 29.80 in1009.1 mb 0.00 in0.0 mm 0.00 in0.0 mm 0.04 in1.0 mm
08:11 PM 68.5°F20.3°C 55.4°F13.0°C 63% 4.9 mph NNW7.9 kmh NNW 10.1 mph16.3 kmh 29.80 in1009.1 mb 0.00 in0.0 mm 0.00 in0.0 mm 0.04 in1.0 mm
08:16 PM 68.5°F20.3°C 55.4°F13.0°C 63% 4.0 mph NNW6.4 kmh NNW 10.1 mph16.3 kmh 29.80 in1009.1 mb 0.00 in0.0 mm 0.00 in0.0 mm 0.04 in1.0 mm
08:21 PM 68.5°F20.3°C 55.4°F13.0°C 63% 4.0 mph N6.4 kmh N 11.0 mph17.7 kmh 29.80 in1009.1 mb 0.00 in0.0 mm 0.00 in0.0 mm 0.04 in1.0 mm
08:26 PM 68.5°F20.3°C 55.4°F13.0°C 63% 4.9 mph NW7.9 kmh NW 13.0 mph20.9 kmh 29.81 in1009.5 mb 0.00 in0.0 mm 0.00 in0.0 mm 0.04 in1.0 mm
08:31 PM 68.5°F20.3°C 55.0°F12.8°C 62% 6.0 mph NW9.7 kmh NW 14.1 mph22.7 kmh 29.81 in1009.5 mb 0.00 in0.0 mm 0.00 in0.0 mm 0.04 in1.0 mm
08:36 PM 68.5°F20.3°C 55.0°F12.8°C 62% 6.0 mph NNW9.7 kmh NNW 13.0 mph20.9 kmh 29.81 in1009.5 mb 0.00 in0.0 mm 0.00 in0.0 mm 0.04 in1.0 mm
08:41 PM 68.4°F20.2°C 54.9°F12.7°C 62% 6.9 mph NNW11.1 kmh NNW 17.0 mph27.4 kmh 29.81 in1009.5 mb 0.00 in0.0 mm 0.00 in0.0 mm 0.04 in1.0 mm
08:46 PM 68.4°F20.2°C 54.9°F12.7°C 62% 8.1 mph NW13.0 kmh NW 17.0 mph27.4 kmh 29.81 in1009.5 mb 0.00 in0.0 mm 0.00 in0.0 mm 0.04 in1.0 mm
08:51 PM 68.4°F20.2°C 55.2°F12.9°C 63% 6.9 mph NNW11.1 kmh NNW 12.1 mph19.5 kmh 29.82 in1009.8 mb 0.00 in0.0 mm 0.00 in0.0 mm 0.04 in1.0 mm
08:56 PM 68.4°F20.2°C 55.2°F12.9°C 63% 6.0 mph WNW9.7 kmh WNW 11.0 mph17.7 kmh 29.82 in1009.8 mb 0.00 in0.0 mm 0.00 in0.0 mm 0.04 in1.0 mm
09:01 PM 68.2°F20.1°C 55.0°F12.8°C 63% 4.9 mph WSW7.9 kmh WSW 13.0 mph20.9 kmh 29.82 in1009.8 mb 0.00 in0.0 mm 0.00 in0.0 mm 0.04 in1.0 mm
09:06 PM 68.2°F20.1°C 55.6°F13.1°C 64% 4.9 mph NW7.9 kmh NW 13.0 mph20.9 kmh 29.82 in1009.8 mb 0.00 in0.0 mm 0.00 in0.0 mm 0.04 in1.0 mm
09:11 PM 68.2°F20.1°C 55.9°F13.3°C 65% 6.0 mph WNW9.7 kmh WNW 15.0 mph24.1 kmh 29.82 in1009.8 mb 0.00 in0.0 mm 0.00 in0.0 mm 0.04 in1.0 mm
09:16 PM 67.8°F19.9°C 55.6°F13.1°C 65% 6.9 mph NW11.1 kmh NW 15.0 mph24.1 kmh 29.82 in1009.8 mb 0.00 in0.0 mm 0.00 in0.0 mm 0.04 in1.0 mm
09:21 PM 67.6°F19.8°C 55.9°F13.3°C 66% 6.9 mph W11.1 kmh W 12.1 mph19.5 kmh 29.82 in1009.8 mb 0.00 in0.0 mm 0.00 in0.0 mm 0.04 in1.0 mm
09:26 PM 67.8°F19.9°C 56.5°F13.6°C 67% 6.0 mph W9.7 kmh W 13.0 mph20.9 kmh 29.82 in1009.8 mb 0.00 in0.0 mm 0.00 in0.0 mm 0.04 in1.0 mm
09:31 PM 67.6°F19.8°C 56.3°F13.5°C 67% 6.0 mph W9.7 kmh W 13.0 mph20.9 kmh 29.82 in1009.8 mb 0.00 in0.0 mm 0.00 in0.0 mm 0.04 in1.0 mm
09:36 PM 67.6°F19.8°C 56.3°F13.5°C 67% 6.9 mph WNW11.1 kmh WNW 13.0 mph20.9 kmh 29.82 in1009.8 mb 0.00 in0.0 mm 0.00 in0.0 mm 0.04 in1.0 mm
09:41 PM 67.5°F19.7°C 56.1°F13.4°C 67% 6.0 mph WNW9.7 kmh WNW 13.0 mph20.9 kmh 29.82 in1009.8 mb 0.00 in0.0 mm 0.00 in0.0 mm 0.04 in1.0 mm
09:46 PM 67.3°F19.6°C 55.9°F13.3°C 67% 6.9 mph WNW11.1 kmh WNW 15.0 mph24.1 kmh 29.82 in1009.8 mb 0.00 in0.0 mm 0.00 in0.0 mm 0.04 in1.0 mm
09:51 PM 67.3°F19.6°C 55.9°F13.3°C 67% 8.9 mph W14.3 kmh W 14.1 mph22.7 kmh 29.82 in1009.8 mb 0.00 in0.0 mm 0.00 in0.0 mm 0.04 in1.0 mm
09:56 PM 67.1°F19.5°C 55.8°F13.2°C 67% 8.1 mph NW13.0 kmh NW 14.1 mph22.7 kmh 29.83 in1010.2 mb 0.00 in0.0 mm 0.00 in0.0 mm 0.04 in1.0 mm
10:01 PM 67.1°F19.5°C 55.8°F13.2°C 67% 6.0 mph NW9.7 kmh NW 12.1 mph19.5 kmh 29.82 in1009.8 mb 0.00 in0.0 mm 0.00 in0.0 mm 0.04 in1.0 mm
10:06 PM 67.1°F19.5°C 56.1°F13.4°C 68% 4.9 mph W7.9 kmh W 13.0 mph20.9 kmh 29.83 in1010.2 mb 0.00 in0.0 mm 0.00 in0.0 mm 0.04 in1.0 mm
10:11 PM 66.9°F19.4°C 55.9°F13.3°C 68% 6.0 mph WSW9.7 kmh WSW 13.0 mph20.9 kmh 29.83 in1010.2 mb 0.00 in0.0 mm 0.00 in0.0 mm 0.04 in1.0 mm
10:16 PM 66.9°F19.4°C 56.5°F13.6°C 69% 6.0 mph WSW9.7 kmh WSW 13.0 mph20.9 kmh 29.82 in1009.8 mb 0.00 in0.0 mm 0.00 in0.0 mm 0.04 in1.0 mm
10:21 PM 66.7°F19.3°C 57.0°F13.9°C 71% 8.1 mph W13.0 kmh W 19.0 mph30.6 kmh 29.83 in1010.2 mb 0.00 in0.0 mm 0.00 in0.0 mm 0.04 in1.0 mm
10:26 PM 66.7°F19.3°C 57.0°F13.9°C 71% 8.1 mph W13.0 kmh W 14.1 mph22.7 kmh 29.83 in1010.2 mb 0.00 in0.0 mm 0.00 in0.0 mm 0.04 in1.0 mm
10:31 PM 66.6°F19.2°C 57.2°F14.0°C 72% 6.9 mph NW11.1 kmh NW 17.0 mph27.4 kmh 29.83 in1010.2 mb 0.00 in0.0 mm 0.00 in0.0 mm 0.04 in1.0 mm
10:36 PM 66.6°F19.2°C 57.6°F14.2°C 73% 8.9 mph W14.3 kmh W 14.1 mph22.7 kmh 29.83 in1010.2 mb 0.00 in0.0 mm 0.00 in0.0 mm 0.04 in1.0 mm
10:41 PM 66.4°F19.1°C 57.4°F14.1°C 73% 8.1 mph WNW13.0 kmh WNW 14.1 mph22.7 kmh 29.83 in1010.2 mb 0.00 in0.0 mm 0.00 in0.0 mm 0.04 in1.0 mm
10:46 PM 66.4°F19.1°C 57.9°F14.4°C 74% 8.1 mph W13.0 kmh W 15.0 mph24.1 kmh 29.83 in1010.2 mb 0.00 in0.0 mm 0.00 in0.0 mm 0.04 in1.0 mm
10:51 PM 66.0°F18.9°C 57.6°F14.2°C 74% 10.1 mph WNW16.3 kmh WNW 16.1 mph25.9 kmh 29.83 in1010.2 mb 0.00 in0.0 mm 0.00 in0.0 mm 0.04 in1.0 mm
10:56 PM 65.8°F18.8°C 57.7°F14.3°C 75% 8.9 mph WNW14.3 kmh WNW 16.1 mph25.9 kmh 29.83 in1010.2 mb 0.00 in0.0 mm 0.00 in0.0 mm 0.04 in1.0 mm
11:01 PM 65.8°F18.8°C 57.7°F14.3°C 75% 8.1 mph WSW13.0 kmh WSW 15.0 mph24.1 kmh 29.83 in1010.2 mb 0.00 in0.0 mm 0.00 in0.0 mm 0.04 in1.0 mm
11:06 PM 65.8°F18.8°C 58.1°F14.5°C 76% 8.1 mph WNW13.0 kmh WNW 18.0 mph29.0 kmh 29.83 in1010.2 mb 0.00 in0.0 mm 0.00 in0.0 mm 0.04 in1.0 mm
11:11 PM 65.7°F18.7°C 57.9°F14.4°C 76% 8.9 mph W14.3 kmh W 15.0 mph24.1 kmh 29.83 in1010.2 mb 0.00 in0.0 mm 0.00 in0.0 mm 0.04 in1.0 mm
11:16 PM 65.7°F18.7°C 57.9°F14.4°C 76% 8.9 mph W14.3 kmh W 17.0 mph27.4 kmh 29.83 in1010.2 mb 0.00 in0.0 mm 0.00 in0.0 mm 0.04 in1.0 mm
11:21 PM 65.7°F18.7°C 57.9°F14.4°C 76% 8.9 mph W14.3 kmh W 16.1 mph25.9 kmh 29.83 in1010.2 mb 0.00 in0.0 mm 0.00 in0.0 mm 0.04 in1.0 mm
11:26 PM 65.7°F18.7°C 57.9°F14.4°C 76% 8.9 mph WNW14.3 kmh WNW 16.1 mph25.9 kmh 29.83 in1010.2 mb 0.00 in0.0 mm 0.00 in0.0 mm 0.04 in1.0 mm
11:31 PM 65.7°F18.7°C 57.9°F14.4°C 76% 6.9 mph W11.1 kmh W 12.1 mph19.5 kmh 29.84 in1010.5 mb 0.00 in0.0 mm 0.00 in0.0 mm 0.04 in1.0 mm
11:36 PM 65.7°F18.7°C 57.6°F14.2°C 75% 6.0 mph W9.7 kmh W 13.0 mph20.9 kmh 29.84 in1010.5 mb 0.00 in0.0 mm 0.00 in0.0 mm 0.04 in1.0 mm
11:41 PM 65.7°F18.7°C 57.6°F14.2°C 75% 6.9 mph WNW11.1 kmh WNW 13.0 mph20.9 kmh 29.84 in1010.5 mb 0.00 in0.0 mm 0.00 in0.0 mm 0.04 in1.0 mm
11:46 PM 65.5°F18.6°C 57.4°F14.1°C 75% 4.9 mph NW7.9 kmh NW 10.1 mph16.3 kmh 29.84 in1010.5 mb 0.00 in0.0 mm 0.00 in0.0 mm 0.04 in1.0 mm
11:51 PM 65.5°F18.6°C 57.4°F14.1°C 75% 4.9 mph NW7.9 kmh NW 10.1 mph16.3 kmh 29.84 in1010.5 mb 0.00 in0.0 mm 0.00 in0.0 mm 0.04 in1.0 mm
11:56 PM 65.5°F18.6°C 57.4°F14.1°C 75% 4.0 mph WNW6.4 kmh WNW 8.9 mph14.3 kmh 29.84 in1010.5 mb 0.00 in0.0 mm 0.00 in0.0 mm 0.04 in1.0 mm